Weather reports worldwide

Advertisment
Cartagena, Spain (8434): temperature & dewpoint: 18.01.2020 02:00:00 - 24.01.2020 02:00:00 (CET)Cartagena, Spain (8434): wind speed & gusts: 18.01.2020 02:00:00 - 24.01.2020 02:00:00 (CET)Cartagena, Spain (8434): wind direction: 18.01.2020 02:00:00 - 24.01.2020 02:00:00 (CET)Cartagena, Spain (8434): precipitation: 18.01.2020 02:00:00 - 24.01.2020 02:00:00 (CET)
Date & Time tt [°C] td [°C] ff [km/h] ff [kn] fx [km/h] fx [kn] dd rr [mm]
24.01.2020 02:00:00 11,7 10,6 4 2 16 8 NNW 0,0
24.01.2020 01:00:00 12,1 10,8 3 1 10 6 N -
24.01.2020 00:00:00 11,8 10,5 4 2 11 6 N 0,0
23.01.2020 23:00:00 11,4 9,8 5 3 11 6 N 0,0
23.01.2020 22:00:00 11,4 9,7 6 3 10 6 NNW 0,0
23.01.2020 21:00:00 12,2 10,1 4 2 11 6 NNW 0,0
23.01.2020 20:00:00 12,6 10,0 3 2 8 4 N 0,0
23.01.2020 19:00:00 13,4 10,0 3 2 11 6 N -
23.01.2020 18:00:00 14,2 9,6 4 2 13 7 NE 0,0
23.01.2020 17:00:00 15,0 9,4 5 3 14 8 NE 0,0
23.01.2020 16:00:00 15,2 10,2 5 3 14 7 NE 0,0
23.01.2020 15:00:00 15,0 10,2 6 3 13 7 NE 0,0
23.01.2020 14:00:00 15,1 10,7 4 2 10 5 NE 0,0
23.01.2020 13:00:00 14,3 10,3 4 2 9 5 NE -
23.01.2020 12:00:00 13,9 10,3 3 2 9 5 NNE 0,0
23.01.2020 11:00:00 11,9 9,8 4 2 8 4 NNE 0,0
23.01.2020 10:00:00 10,7 9,5 1 1 6 3 NE 0,0
23.01.2020 09:00:00 10,0 8,9 4 2 6 4 NE 0,0
23.01.2020 08:00:00 9,8 8,7 1 1 6 3 NE 0,0
23.01.2020 07:00:00 9,6 8,5 1 1 5 3 NNW -
23.01.2020 06:00:00 9,3 8,2 2 1 6 4 NE 0,0
23.01.2020 05:00:00 9,1 8,0 1 1 5 3 NE 0,0
23.01.2020 04:00:00 9,2 8,0 0 0 5 3 W 0,0
23.01.2020 03:00:00 9,7 8,5 1 1 4 2 NE 0,0
23.01.2020 02:00:00 10,0 8,6 1 0 5 3 NE 0,0
23.01.2020 01:00:00 10,5 9,1 2 1 7 4 NE -
23.01.2020 00:00:00 11,0 9,3 1 1 6 3 NE 0,0
22.01.2020 23:00:00 11,6 9,9 1 1 4 2 ENE 0,0
22.01.2020 22:00:00 12,1 10,0 0 0 6 3 N 0,0
22.01.2020 21:00:00 12,6 10,3 3 2 6 4 N 0,0
22.01.2020 20:00:00 13,1 10,6 1 1 5 3 WNW 0,0
22.01.2020 19:00:00 13,3 10,5 2 1 12 6 N -
22.01.2020 18:00:00 14,1 10,5 6 3 14 8 NNE 0,0
22.01.2020 17:00:00 14,6 10,6 5 3 22 12 NE 0,0
22.01.2020 16:00:00 15,2 10,6 5 3 20 11 NNE 0,0
22.01.2020 15:00:00 14,8 10,4 6 3 21 11 NNE 0,0
22.01.2020 14:00:00 14,8 10,4 6 4 23 12 NE 0,0
22.01.2020 13:00:00 14,4 10,4 6 4 23 12 NE -
22.01.2020 12:00:00 13,4 10,6 8 4 19 10 NNE 0,0
22.01.2020 11:00:00 12,7 10,8 7 4 14 8 N 0,0
22.01.2020 10:00:00 11,1 9,9 5 3 12 7 NNW 0,0
22.01.2020 09:00:00 10,1 9,0 3 1 9 5 N 0,1
22.01.2020 08:00:00 9,3 8,2 1 1 8 4 N 0,0
22.01.2020 07:00:00 9,1 8,0 4 2 14 8 N -
22.01.2020 06:00:00 9,4 8,3 4 2 8 4 N 0,0
22.01.2020 05:00:00 9,7 8,6 3 2 9 5 NNE 0,0
22.01.2020 04:00:00 10,0 8,9 3 2 12 6 N 0,0
22.01.2020 03:00:00 10,3 9,2 2 1 6 3 N 0,0
22.01.2020 02:00:00 10,5 9,4 2 1 8 5 NNW 0,0
22.01.2020 01:00:00 10,7 9,5 3 2 10 5 N -
22.01.2020 00:00:00 10,8 9,6 3 1 8 4 NNW 0,0
21.01.2020 23:00:00 11,1 9,7 3 2 7 4 NNE 0,0
21.01.2020 22:00:00 11,2 9,6 2 1 8 4 N 0,3
21.01.2020 21:00:00 11,5 9,6 4 2 8 4 N 0,0
21.01.2020 20:00:00 11,6 9,2 3 2 6 3 N 0,1
21.01.2020 19:00:00 12,0 8,8 3 1 10 5 ENE -
21.01.2020 18:00:00 12,4 8,7 2 1 6 4 ENE 0,0
21.01.2020 17:00:00 12,9 8,4 2 1 9 5 E 0,1
21.01.2020 16:00:00 12,9 7,8 3 1 7 4 E 0,0
21.01.2020 15:00:00 13,3 8,4 1 1 10 5 N 0,0
21.01.2020 14:00:00 13,1 8,8 2 1 9 5 NE 0,0
21.01.2020 13:00:00 11,2 9,1 4 2 10 6 NNE -
21.01.2020 12:00:00 10,4 9,5 6 3 12 6 N 0,0
21.01.2020 11:00:00 9,1 8,2 7 4 26 14 N 0,4
21.01.2020 10:00:00 9,2 8,3 8 4 20 11 NNW 0,8
21.01.2020 09:00:00 9,0 8,1 7 4 17 9 WNW 1,4
21.01.2020 08:00:00 9,0 7,9 5 3 19 10 NNW 1,7
21.01.2020 07:00:00 8,7 7,5 8 4 16 9 WNW -
21.01.2020 06:00:00 9,3 8,1 6 3 33 18 NNW 5,0
21.01.2020 05:00:00 9,4 8,2 6 3 24 13 N 5,0
21.01.2020 04:00:00 10,0 8,8 3 1 23 13 SE 1,7
21.01.2020 03:00:00 9,7 8,3 6 4 24 13 NNW 4,2
21.01.2020 02:00:00 9,5 8,3 10 5 24 13 NNW 0,0
21.01.2020 01:00:00 9,3 8,1 8 4 23 13 NNW -
21.01.2020 00:00:00 9,2 8,0 8 4 16 9 NNW 0,2
20.01.2020 23:00:00 8,8 7,6 4 2 18 10 NNW 0,2
20.01.2020 22:00:00 9,1 7,9 3 2 12 7 E 1,2
20.01.2020 21:00:00 9,4 8,2 5 3 11 6 NNW 0,2
20.01.2020 20:00:00 9,4 8,2 5 3 15 8 NNW 0,0
20.01.2020 19:00:00 9,0 7,8 5 3 15 8 NNW -
20.01.2020 18:00:00 9,3 7,9 7 4 19 10 NNW 0,7
20.01.2020 17:00:00 10,0 8,4 5 3 14 8 N 1,5
20.01.2020 16:00:00 10,3 8,6 3 2 16 9 E 3,9
20.01.2020 15:00:00 10,4 7,8 4 2 19 11 WNW 1,9
20.01.2020 14:00:00 10,4 7,8 8 5 20 11 N 0,0
20.01.2020 13:00:00 9,9 7,0 6 3 21 12 NNE -
20.01.2020 12:00:00 9,6 7,2 7 4 24 13 NNW 0,0
20.01.2020 11:00:00 9,1 7,1 8 5 27 15 N 0,1
20.01.2020 10:00:00 10,5 8,3 10 5 22 12 N 0,1
20.01.2020 09:00:00 10,7 8,3 6 4 29 16 ENE 0,0
20.01.2020 08:00:00 6,9 4,7 13 7 32 17 NW 0,6
20.01.2020 07:00:00 7,3 4,8 11 6 38 20 N -
20.01.2020 06:00:00 7,5 4,8 14 7 36 20 NNW 3,3
20.01.2020 05:00:00 7,8 5,6 11 6 33 18 N 1,7
20.01.2020 04:00:00 8,0 5,8 14 7 43 23 N 4,4
20.01.2020 03:00:00 8,3 5,8 18 10 36 19 N 0,7
20.01.2020 02:00:00 7,9 6,2 18 10 36 20 N 1,1
20.01.2020 01:00:00 7,6 6,4 15 8 31 17 NNW -
20.01.2020 00:00:00 7,6 6,2 10 5 32 17 NNW 5,6
19.01.2020 23:00:00 7,6 6,1 13 7 33 18 NNW 4,1
19.01.2020 22:00:00 7,4 5,7 16 9 33 18 NNW 4,7
19.01.2020 21:00:00 7,1 5,1 13 7 35 19 NW 5,6
19.01.2020 20:00:00 8,9 5,1 12 6 26 14 N 1,5
19.01.2020 19:00:00 9,8 3,3 11 6 29 16 NNW -
19.01.2020 18:00:00 10,8 1,9 11 6 36 20 NNW 0,0
19.01.2020 17:00:00 11,9 2,9 13 7 34 18 NNW 0,0
19.01.2020 16:00:00 12,7 3,9 13 7 38 20 NNW 0,0
19.01.2020 15:00:00 13,4 4,3 8 5 26 14 NNW 0,0
19.01.2020 14:00:00 13,9 3,7 10 5 32 17 NNW 0,0
19.01.2020 13:00:00 13,8 3,6 12 6 35 19 N -
19.01.2020 12:00:00 13,9 4,0 14 8 41 22 NNW 0,0
19.01.2020 11:00:00 13,6 4,8 15 8 36 19 NNW 0,0
19.01.2020 10:00:00 12,3 5,2 11 6 23 12 N 0,0
19.01.2020 09:00:00 10,6 4,5 8 4 20 11 NW 0,0
19.01.2020 08:00:00 10,7 5,1 8 5 23 13 NW 0,0
19.01.2020 07:00:00 11,0 6,8 6 3 15 8 NNW -
19.01.2020 06:00:00 10,5 7,9 7 4 21 12 NW 0,0
19.01.2020 05:00:00 10,8 8,4 4 2 11 6 NNW 0,0
19.01.2020 04:00:00 10,9 8,3 0 0 4 2 N 0,0
19.01.2020 03:00:00 10,8 8,0 2 1 10 5 ENE 0,0
19.01.2020 02:00:00 13,0 9,6 3 1 23 12 NNE 0,0
19.01.2020 01:00:00 14,3 10,1 10 5 37 20 SW -
19.01.2020 00:00:00 13,8 10,8 23 13 46 25 SW 0,0
18.01.2020 23:00:00 13,8 11,0 4 2 35 19 SW 0,0
18.01.2020 22:00:00 14,0 11,3 15 8 35 19 SSW 0,0
18.01.2020 21:00:00 14,0 11,3 14 8 32 17 SW 0,0
18.01.2020 20:00:00 14,1 11,4 4 2 29 16 SSW 0,0
18.01.2020 19:00:00 13,6 9,8 14 8 36 19 SSW -
18.01.2020 18:00:00 13,5 9,4 11 6 28 15 SSW 0,0
18.01.2020 17:00:00 13,9 8,1 6 4 22 12 SSW 0,0
18.01.2020 16:00:00 14,5 7,8 6 3 19 11 WSW 0,0
18.01.2020 15:00:00 14,0 9,6 7 4 11 6 S 0,0
18.01.2020 14:00:00 12,7 9,3 1 0 5 3 SSW 0,0
18.01.2020 13:00:00 12,3 9,3 0 0 5 3 E -
18.01.2020 12:00:00 11,9 8,0 1 0 9 5 SSW 0,3
18.01.2020 11:00:00 11,8 7,7 4 2 7 4 NE 0,0
18.01.2020 10:00:00 10,5 6,6 3 1 9 5 NNW 0,0
18.01.2020 09:00:00 9,2 5,9 4 2 8 4 NE 0,0
18.01.2020 08:00:00 9,0 5,7 3 2 5 3 NE 0,0
18.01.2020 07:00:00 8,7 5,5 1 0 4 2 NE -
18.01.2020 06:00:00 9,3 6,0 1 0 5 3 N 0,0
18.01.2020 05:00:00 9,2 5,9 1 1 6 3 N 0,0
18.01.2020 04:00:00 9,3 6,0 3 1 8 4 N 0,0
18.01.2020 03:00:00 10,6 7,3 3 2 6 3 NNE 0,0
18.01.2020 02:00:00 10,5 7,2 1 1 4 2 NNW 0,0

tt = temperature
td = dewpoint
ff = wind speed
fx = gusts
dd = wind direction
rr = precipitation

Next stations